Home   Weather   Germany   Senftenberg   Past weeks
Flag for Germany

Past Weather in Senftenberg, Brandenburg, Germany — Yesterday and Last 2 Weeks

Currently: 72 °F. Scattered clouds. (Weather station: Dresden-Klotzsche, Germany). See more current weather

Past Weather in Senftenberg — Graph

°F

Senftenberg Temperature Yesterday

Maximum temperature yesterday: 72 °F (at 3:50 pm)
Minimum temperature yesterday: 57 °F (at 1:20 am)
Average temperature yesterday: 62 °F

High & Low Weather Summary for the Past Weeks

 TemperatureHumidityPressure
High82 °F (Jul 24, 1:20 pm)100% (Jul 26, 2:50 am)30.21 "Hg (Jul 26, 2:50 am)
Low55 °F (Jul 20, 2:20 am)34% (Jul 31, 2:20 pm)29.74 "Hg (Jul 30, 5:50 pm)
Average67 °F66%29.95 "Hg
* Reported Jul 19 12:20 pm — Aug 3 12:50 pm, Senftenberg. Weather by CustomWeather, © 2021

Note: Actual official high and low records may vary slightly from our data, if they occured in-between our weather recording intervals... More about our weather records

Senftenberg Weather History for the Previous 24 Hours

Scroll right to see more
 ConditionsComfort  
Time TempWeatherWind HumidityBarometerVisibility
12:50 pm
Tue, Aug 3
70 °FScattered clouds.5 mph57%29.95 "HgN/A
12:20 pm68 °FScattered clouds.6 mph60%29.95 "HgN/A
11:50 am68 °FScattered clouds.5 mph60%29.98 "HgN/A
11:20 am68 °FScattered clouds.7 mph60%29.98 "HgN/A
10:50 am68 °FScattered clouds.5 mph60%29.98 "HgN/A
10:20 am66 °FScattered clouds.6 mph64%29.98 "HgN/A
9:50 am66 °FScattered clouds.3 mph68%29.98 "HgN/A
9:20 am64 °FScattered clouds.3 mph73%29.98 "HgN/A
8:50 am63 °FScattered clouds.5 mph73%29.98 "HgN/A
8:20 am63 °FPassing clouds.6 mph73%29.98 "HgN/A
7:50 am61 °FPassing clouds.5 mph77%29.98 "HgN/A
7:20 am59 °FPassing clouds.7 mph82%29.98 "HgN/A
6:50 am57 °FPassing clouds.5 mph88%29.98 "HgN/A
6:20 am57 °FSunny.5 mph82%29.98 "Hg10 mi
5:50 am57 °FSunny.5 mph82%29.98 "Hg10 mi
5:20 am57 °FClear.5 mph82%29.98 "Hg10 mi
4:50 am55 °FClear.5 mph88%29.98 "Hg10 mi
4:20 am55 °FClear.6 mph94%29.98 "Hg10 mi
3:50 am55 °FClear.7 mph88%29.95 "Hg10 mi
3:20 am55 °FClear.7 mph88%29.95 "Hg10 mi
2:50 am55 °FClear.7 mph88%29.95 "Hg10 mi
2:20 am55 °FClear.7 mph88%29.95 "Hg10 mi
1:50 am55 °FClear.7 mph88%29.95 "Hg10 mi
1:20 am55 °FClear.7 mph88%29.98 "Hg10 mi
12:50 am55 °FClear.6 mph88%29.95 "Hg10 mi
12:20 am57 °FClear.6 mph82%29.95 "Hg10 mi
11:50 pm
Mon, Aug 2
57 °FClear.5 mph88%29.95 "Hg10 mi
11:20 pm59 °FClear.6 mph82%29.95 "Hg10 mi
10:50 pm59 °FClear.6 mph82%29.95 "Hg10 mi
10:20 pm59 °FClear.6 mph82%29.95 "Hg10 mi
9:50 pm59 °FScattered showers. Passing clouds.5 mph88%29.95 "HgN/A
9:20 pm61 °FSprinkles. Passing clouds.7 mph77%29.95 "HgN/A
8:50 pm63 °FSprinkles. Passing clouds.6 mph68%29.95 "HgN/A
8:20 pm64 °FScattered showers. Scattered clouds.6 mph68%29.95 "HgN/A
7:50 pm64 °FScattered showers. Passing clouds.7 mph64%29.92 "HgN/A
7:20 pm66 °FMild.7 mph60%29.92 "HgN/A
6:50 pm68 °FPassing clouds.7 mph56%29.92 "HgN/A
6:20 pm68 °FPassing clouds.8 mph56%29.92 "HgN/A
5:50 pm68 °FPassing clouds.9 mph56%29.92 "HgN/A
5:20 pm68 °FPassing clouds.10 mph56%29.92 "HgN/A
4:50 pm68 °FScattered clouds.12 mph53%29.92 "HgN/A
4:20 pm70 °FScattered clouds.10 mph50%29.92 "HgN/A
3:50 pm72 °FScattered clouds.10 mph53%29.92 "HgN/A
3:20 pm68 °FScattered clouds.10 mph56%29.92 "HgN/A
2:50 pm70 °FScattered clouds.9 mph53%29.92 "HgN/A
2:20 pm66 °FScattered clouds.10 mph60%29.92 "HgN/A
Weather by CustomWeather, © 2021

See weather overview